sensor_id;sensor_type;location;lat;lon;timestamp;P1;durP1;ratioP1;P2;durP2;ratioP2
2848;SDS011;59355;52.416;13.412;2023-04-15T00:00:59;43.10;;;33.27;;
2848;SDS011;59355;52.416;13.412;2023-04-15T00:03:25;41.90;;;34.17;;
2848;SDS011;59355;52.416;13.412;2023-04-15T00:05:50;43.10;;;34.63;;
2848;SDS011;59355;52.416;13.412;2023-04-15T00:08:15;47.10;;;36.33;;
2848;SDS011;59355;52.416;13.412;2023-04-15T00:10:41;45.60;;;35.70;;
2848;SDS011;59355;52.416;13.412;2023-04-15T00:13:08;41.00;;;34.53;;
2848;SDS011;59355;52.416;13.412;2023-04-15T00:15:33;42.63;;;33.30;;
2848;SDS011;59355;52.416;13.412;2023-04-15T00:17:58;44.23;;;36.83;;
2848;SDS011;59355;52.416;13.412;2023-04-15T00:20:24;43.53;;;34.97;;
2848;SDS011;59355;52.416;13.412;2023-04-15T00:22:49;41.33;;;35.17;;
2848;SDS011;59355;52.416;13.412;2023-04-15T00:25:14;44.13;;;35.40;;
2848;SDS011;59355;52.416;13.412;2023-04-15T00:27:40;40.70;;;33.57;;
2848;SDS011;59355;52.416;13.412;2023-04-15T00:30:06;45.70;;;36.60;;
2848;SDS011;59355;52.416;13.412;2023-04-15T00:32:31;45.40;;;37.10;;
2848;SDS011;59355;52.416;13.412;2023-04-15T00:34:57;46.97;;;37.20;;
2848;SDS011;59355;52.416;13.412;2023-04-15T00:37:22;46.33;;;36.80;;
2848;SDS011;59355;52.416;13.412;2023-04-15T00:39:47;50.77;;;39.40;;
2848;SDS011;59355;52.416;13.412;2023-04-15T00:42:13;46.73;;;37.73;;
2848;SDS011;59355;52.416;13.412;2023-04-15T00:44:38;51.10;;;38.10;;
2848;SDS011;59355;52.416;13.412;2023-04-15T00:47:03;48.97;;;36.60;;
2848;SDS011;59355;52.416;13.412;2023-04-15T00:49:29;46.43;;;34.77;;
2848;SDS011;59355;52.416;13.412;2023-04-15T00:51:56;51.50;;;40.10;;
2848;SDS011;59355;52.416;13.412;2023-04-15T00:54:21;46.63;;;36.80;;
2848;SDS011;59355;52.416;13.412;2023-04-15T00:56:47;51.77;;;40.20;;
2848;SDS011;59355;52.416;13.412;2023-04-15T00:59:13;47.30;;;37.77;;
2848;SDS011;59355;52.416;13.412;2023-04-15T01:01:38;53.40;;;38.90;;
2848;SDS011;59355;52.416;13.412;2023-04-15T01:04:04;53.70;;;44.77;;
2848;SDS011;59355;52.416;13.412;2023-04-15T01:06:30;51.50;;;37.57;;
2848;SDS011;59355;52.416;13.412;2023-04-15T01:08:59;58.83;;;42.37;;
2848;SDS011;59355;52.416;13.412;2023-04-15T01:11:25;49.67;;;37.67;;
2848;SDS011;59355;52.416;13.412;2023-04-15T01:13:51;51.60;;;37.80;;
2848;SDS011;59355;52.416;13.412;2023-04-15T01:16:17;55.73;;;39.03;;
2848;SDS011;59355;52.416;13.412;2023-04-15T01:18:42;48.27;;;36.80;;
2848;SDS011;59355;52.416;13.412;2023-04-15T01:21:08;51.07;;;38.73;;
2848;SDS011;59355;52.416;13.412;2023-04-15T01:23:35;52.70;;;39.37;;
2848;SDS011;59355;52.416;13.412;2023-04-15T01:26:01;52.17;;;40.60;;
2848;SDS011;59355;52.416;13.412;2023-04-15T01:28:27;54.27;;;38.30;;
2848;SDS011;59355;52.416;13.412;2023-04-15T01:31:05;54.37;;;39.60;;
2848;SDS011;59355;52.416;13.412;2023-04-15T01:36:02;57.23;;;39.40;;
2848;SDS011;59355;52.416;13.412;2023-04-15T01:38:29;52.63;;;40.57;;
2848;SDS011;59355;52.416;13.412;2023-04-15T01:40:55;51.90;;;38.93;;
2848;SDS011;59355;52.416;13.412;2023-04-15T01:43:21;49.83;;;38.77;;
2848;SDS011;59355;52.416;13.412;2023-04-15T01:45:46;52.37;;;40.30;;
2848;SDS011;59355;52.416;13.412;2023-04-15T01:48:11;55.57;;;40.20;;
2848;SDS011;59355;52.416;13.412;2023-04-15T01:50:37;54.03;;;41.07;;
2848;SDS011;59355;52.416;13.412;2023-04-15T01:53:02;52.23;;;39.60;;
2848;SDS011;59355;52.416;13.412;2023-04-15T01:55:28;53.67;;;38.93;;
2848;SDS011;59355;52.416;13.412;2023-04-15T01:57:54;54.83;;;40.67;;
2848;SDS011;59355;52.416;13.412;2023-04-15T02:00:19;50.97;;;39.87;;
2848;SDS011;59355;52.416;13.412;2023-04-15T02:02:46;57.37;;;42.37;;
2848;SDS011;59355;52.416;13.412;2023-04-15T02:05:11;56.93;;;39.07;;
2848;SDS011;59355;52.416;13.412;2023-04-15T02:07:37;56.03;;;40.63;;
2848;SDS011;59355;52.416;13.412;2023-04-15T02:10:02;64.10;;;41.10;;
2848;SDS011;59355;52.416;13.412;2023-04-15T02:12:28;63.50;;;41.43;;
2848;SDS011;59355;52.416;13.412;2023-04-15T02:14:53;59.33;;;41.63;;
2848;SDS011;59355;52.416;13.412;2023-04-15T02:17:18;53.43;;;40.70;;
2848;SDS011;59355;52.416;13.412;2023-04-15T02:19:44;55.67;;;40.43;;
2848;SDS011;59355;52.416;13.412;2023-04-15T02:22:09;53.43;;;41.57;;
2848;SDS011;59355;52.416;13.412;2023-04-15T02:24:38;58.03;;;42.40;;
2848;SDS011;59355;52.416;13.412;2023-04-15T02:27:03;50.73;;;39.17;;
2848;SDS011;59355;52.416;13.412;2023-04-15T02:29:30;59.43;;;39.77;;
2848;SDS011;59355;52.416;13.412;2023-04-15T02:31:56;57.73;;;39.43;;
2848;SDS011;59355;52.416;13.412;2023-04-15T02:34:21;60.10;;;39.63;;
2848;SDS011;59355;52.416;13.412;2023-04-15T02:36:47;49.73;;;37.50;;
2848;SDS011;59355;52.416;13.412;2023-04-15T02:39:13;51.90;;;38.27;;
2848;SDS011;59355;52.416;13.412;2023-04-15T02:41:40;54.10;;;39.93;;
2848;SDS011;59355;52.416;13.412;2023-04-15T02:44:07;52.03;;;37.13;;
2848;SDS011;59355;52.416;13.412;2023-04-15T02:46:33;53.37;;;38.17;;
2848;SDS011;59355;52.416;13.412;2023-04-15T02:48:58;60.23;;;41.57;;
2848;SDS011;59355;52.416;13.412;2023-04-15T02:51:24;54.30;;;40.40;;
2848;SDS011;59355;52.416;13.412;2023-04-15T02:53:49;50.57;;;38.00;;
2848;SDS011;59355;52.416;13.412;2023-04-15T02:56:15;53.23;;;38.50;;
2848;SDS011;59355;52.416;13.412;2023-04-15T02:58:41;51.60;;;39.83;;
2848;SDS011;59355;52.416;13.412;2023-04-15T03:01:08;53.93;;;37.90;;
2848;SDS011;59355;52.416;13.412;2023-04-15T03:03:33;51.90;;;37.00;;
2848;SDS011;59355;52.416;13.412;2023-04-15T03:05:59;51.13;;;39.13;;
2848;SDS011;59355;52.416;13.412;2023-04-15T03:08:24;51.43;;;38.80;;
2848;SDS011;59355;52.416;13.412;2023-04-15T03:10:50;54.43;;;38.80;;
2848;SDS011;59355;52.416;13.412;2023-04-15T03:13:16;51.73;;;38.17;;
2848;SDS011;59355;52.416;13.412;2023-04-15T03:15:42;53.90;;;38.90;;
2848;SDS011;59355;52.416;13.412;2023-04-15T03:18:07;53.90;;;38.77;;
2848;SDS011;59355;52.416;13.412;2023-04-15T03:20:33;49.43;;;37.80;;
2848;SDS011;59355;52.416;13.412;2023-04-15T03:22:59;53.67;;;36.80;;
2848;SDS011;59355;52.416;13.412;2023-04-15T03:25:25;47.90;;;36.70;;
2848;SDS011;59355;52.416;13.412;2023-04-15T03:27:50;49.17;;;37.27;;
2848;SDS011;59355;52.416;13.412;2023-04-15T03:30:16;47.80;;;36.90;;
2848;SDS011;59355;52.416;13.412;2023-04-15T03:32:41;49.70;;;36.37;;
2848;SDS011;59355;52.416;13.412;2023-04-15T03:35:07;54.40;;;38.03;;
2848;SDS011;59355;52.416;13.412;2023-04-15T03:37:33;51.07;;;37.73;;
2848;SDS011;59355;52.416;13.412;2023-04-15T03:39:58;47.83;;;35.77;;
2848;SDS011;59355;52.416;13.412;2023-04-15T03:42:24;51.17;;;37.57;;
2848;SDS011;59355;52.416;13.412;2023-04-15T03:44:49;46.77;;;36.23;;
2848;SDS011;59355;52.416;13.412;2023-04-15T03:47:15;48.97;;;34.60;;
2848;SDS011;59355;52.416;13.412;2023-04-15T03:49:40;45.30;;;35.30;;
2848;SDS011;59355;52.416;13.412;2023-04-15T03:52:05;43.93;;;35.67;;
2848;SDS011;59355;52.416;13.412;2023-04-15T03:54:31;49.03;;;36.50;;
2848;SDS011;59355;52.416;13.412;2023-04-15T03:56:56;54.93;;;35.27;;
2848;SDS011;59355;52.416;13.412;2023-04-15T03:59:21;42.93;;;33.20;;
2848;SDS011;59355;52.416;13.412;2023-04-15T04:01:47;40.47;;;34.97;;
2848;SDS011;59355;52.416;13.412;2023-04-15T04:04:13;42.20;;;34.30;;
2848;SDS011;59355;52.416;13.412;2023-04-15T04:06:38;47.20;;;34.40;;
2848;SDS011;59355;52.416;13.412;2023-04-15T04:09:03;45.33;;;35.30;;
2848;SDS011;59355;52.416;13.412;2023-04-15T04:11:29;44.43;;;34.90;;
2848;SDS011;59355;52.416;13.412;2023-04-15T04:13:54;42.50;;;33.73;;
2848;SDS011;59355;52.416;13.412;2023-04-15T04:16:19;42.40;;;34.17;;
2848;SDS011;59355;52.416;13.412;2023-04-15T04:18:45;45.47;;;34.57;;
2848;SDS011;59355;52.416;13.412;2023-04-15T04:21:10;43.47;;;32.80;;
2848;SDS011;59355;52.416;13.412;2023-04-15T04:23:35;45.07;;;32.87;;
2848;SDS011;59355;52.416;13.412;2023-04-15T04:26:01;38.83;;;32.20;;
2848;SDS011;59355;52.416;13.412;2023-04-15T04:28:26;36.53;;;29.90;;
2848;SDS011;59355;52.416;13.412;2023-04-15T04:30:51;41.77;;;31.07;;
2848;SDS011;59355;52.416;13.412;2023-04-15T04:33:17;39.63;;;33.60;;
2848;SDS011;59355;52.416;13.412;2023-04-15T04:35:42;40.53;;;31.60;;
2848;SDS011;59355;52.416;13.412;2023-04-15T04:38:07;39.60;;;32.00;;
2848;SDS011;59355;52.416;13.412;2023-04-15T04:40:33;36.47;;;31.53;;
2848;SDS011;59355;52.416;13.412;2023-04-15T04:42:58;36.63;;;31.33;;
2848;SDS011;59355;52.416;13.412;2023-04-15T04:45:24;37.50;;;32.03;;
2848;SDS011;59355;52.416;13.412;2023-04-15T04:47:49;32.60;;;29.07;;
2848;SDS011;59355;52.416;13.412;2023-04-15T04:50:15;33.97;;;29.40;;
2848;SDS011;59355;52.416;13.412;2023-04-15T04:52:40;34.00;;;28.50;;
2848;SDS011;59355;52.416;13.412;2023-04-15T04:55:06;37.30;;;29.97;;
2848;SDS011;59355;52.416;13.412;2023-04-15T04:57:32;34.10;;;27.03;;
2848;SDS011;59355;52.416;13.412;2023-04-15T04:59:59;35.47;;;27.60;;
2848;SDS011;59355;52.416;13.412;2023-04-15T05:02:25;33.57;;;28.97;;
2848;SDS011;59355;52.416;13.412;2023-04-15T05:04:51;31.17;;;26.43;;
2848;SDS011;59355;52.416;13.412;2023-04-15T05:07:18;32.47;;;28.07;;
2848;SDS011;59355;52.416;13.412;2023-04-15T05:09:44;30.37;;;26.60;;
2848;SDS011;59355;52.416;13.412;2023-04-15T05:12:10;29.10;;;25.47;;
2848;SDS011;59355;52.416;13.412;2023-04-15T05:14:38;29.80;;;25.83;;
2848;SDS011;59355;52.416;13.412;2023-04-15T05:17:04;29.90;;;26.70;;
2848;SDS011;59355;52.416;13.412;2023-04-15T05:19:29;31.70;;;25.53;;
2848;SDS011;59355;52.416;13.412;2023-04-15T05:21:55;27.47;;;24.57;;
2848;SDS011;59355;52.416;13.412;2023-04-15T05:24:20;28.83;;;25.73;;
2848;SDS011;59355;52.416;13.412;2023-04-15T05:26:46;29.33;;;26.33;;
2848;SDS011;59355;52.416;13.412;2023-04-15T05:29:11;28.23;;;25.17;;
2848;SDS011;59355;52.416;13.412;2023-04-15T05:31:36;26.43;;;23.63;;
2848;SDS011;59355;52.416;13.412;2023-04-15T05:34:02;29.23;;;24.10;;
2848;SDS011;59355;52.416;13.412;2023-04-15T05:36:29;25.47;;;22.93;;
2848;SDS011;59355;52.416;13.412;2023-04-15T05:38:55;28.50;;;25.50;;
2848;SDS011;59355;52.416;13.412;2023-04-15T05:41:20;26.57;;;23.67;;
2848;SDS011;59355;52.416;13.412;2023-04-15T05:43:46;25.80;;;23.37;;
2848;SDS011;59355;52.416;13.412;2023-04-15T05:46:11;29.83;;;26.67;;
2848;SDS011;59355;52.416;13.412;2023-04-15T05:48:36;26.77;;;23.77;;
2848;SDS011;59355;52.416;13.412;2023-04-15T05:51:02;28.10;;;25.00;;
2848;SDS011;59355;52.416;13.412;2023-04-15T05:53:27;26.03;;;23.23;;
2848;SDS011;59355;52.416;13.412;2023-04-15T05:55:52;24.90;;;22.23;;
2848;SDS011;59355;52.416;13.412;2023-04-15T05:58:18;24.37;;;21.77;;
2848;SDS011;59355;52.416;13.412;2023-04-15T06:00:43;25.53;;;22.33;;
2848;SDS011;59355;52.416;13.412;2023-04-15T06:03:10;26.27;;;23.23;;
2848;SDS011;59355;52.416;13.412;2023-04-15T06:05:35;24.67;;;22.17;;
2848;SDS011;59355;52.416;13.412;2023-04-15T06:08:01;24.27;;;21.77;;
2848;SDS011;59355;52.416;13.412;2023-04-15T06:10:26;25.07;;;22.40;;
2848;SDS011;59355;52.416;13.412;2023-04-15T06:12:52;24.67;;;22.27;;
2848;SDS011;59355;52.416;13.412;2023-04-15T06:15:17;25.47;;;22.87;;
2848;SDS011;59355;52.416;13.412;2023-04-15T06:17:42;22.40;;;20.20;;
2848;SDS011;59355;52.416;13.412;2023-04-15T06:20:08;23.50;;;21.00;;
2848;SDS011;59355;52.416;13.412;2023-04-15T06:22:33;23.77;;;21.40;;
2848;SDS011;59355;52.416;13.412;2023-04-15T06:24:59;24.03;;;21.43;;
2848;SDS011;59355;52.416;13.412;2023-04-15T06:27:24;23.30;;;19.93;;
2848;SDS011;59355;52.416;13.412;2023-04-15T06:29:49;21.77;;;19.60;;
2848;SDS011;59355;52.416;13.412;2023-04-15T06:32:15;22.07;;;19.80;;
2848;SDS011;59355;52.416;13.412;2023-04-15T06:34:40;20.43;;;18.43;;
2848;SDS011;59355;52.416;13.412;2023-04-15T06:37:06;21.43;;;19.37;;
2848;SDS011;59355;52.416;13.412;2023-04-15T06:39:31;21.03;;;18.93;;
2848;SDS011;59355;52.416;13.412;2023-04-15T06:41:56;20.60;;;18.60;;
2848;SDS011;59355;52.416;13.412;2023-04-15T06:44:22;25.00;;;19.70;;
2848;SDS011;59355;52.416;13.412;2023-04-15T06:46:47;20.90;;;18.80;;
2848;SDS011;59355;52.416;13.412;2023-04-15T06:49:12;19.87;;;17.93;;
2848;SDS011;59355;52.416;13.412;2023-04-15T06:51:38;21.53;;;18.40;;
2848;SDS011;59355;52.416;13.412;2023-04-15T06:54:03;19.87;;;17.37;;
2848;SDS011;59355;52.416;13.412;2023-04-15T06:56:30;21.87;;;19.57;;
2848;SDS011;59355;52.416;13.412;2023-04-15T06:58:56;20.43;;;18.43;;
2848;SDS011;59355;52.416;13.412;2023-04-15T07:01:21;18.53;;;16.73;;
2848;SDS011;59355;52.416;13.412;2023-04-15T07:03:47;18.93;;;16.93;;
2848;SDS011;59355;52.416;13.412;2023-04-15T07:06:12;19.47;;;17.33;;
2848;SDS011;59355;52.416;13.412;2023-04-15T07:08:38;18.90;;;17.03;;
2848;SDS011;59355;52.416;13.412;2023-04-15T07:11:03;18.03;;;16.30;;
2848;SDS011;59355;52.416;13.412;2023-04-15T07:13:29;18.97;;;17.17;;
2848;SDS011;59355;52.416;13.412;2023-04-15T07:15:55;18.13;;;16.43;;
2848;SDS011;59355;52.416;13.412;2023-04-15T07:18:20;17.60;;;15.83;;
2848;SDS011;59355;52.416;13.412;2023-04-15T07:20:46;17.77;;;15.97;;
2848;SDS011;59355;52.416;13.412;2023-04-15T07:23:11;18.03;;;16.23;;
2848;SDS011;59355;52.416;13.412;2023-04-15T07:25:37;18.53;;;16.83;;
2848;SDS011;59355;52.416;13.412;2023-04-15T07:28:02;17.00;;;15.30;;
2848;SDS011;59355;52.416;13.412;2023-04-15T07:30:27;17.77;;;15.97;;
2848;SDS011;59355;52.416;13.412;2023-04-15T07:32:53;18.20;;;16.50;;
2848;SDS011;59355;52.416;13.412;2023-04-15T07:35:18;18.43;;;16.53;;
2848;SDS011;59355;52.416;13.412;2023-04-15T07:37:45;18.37;;;16.47;;
2848;SDS011;59355;52.416;13.412;2023-04-15T07:40:10;18.90;;;17.10;;
2848;SDS011;59355;52.416;13.412;2023-04-15T07:42:36;19.07;;;17.27;;
2848;SDS011;59355;52.416;13.412;2023-04-15T07:45:01;20.73;;;18.73;;
2848;SDS011;59355;52.416;13.412;2023-04-15T07:47:27;20.43;;;18.20;;
2848;SDS011;59355;52.416;13.412;2023-04-15T07:49:52;21.30;;;19.07;;
2848;SDS011;59355;52.416;13.412;2023-04-15T07:52:17;20.03;;;18.07;;
2848;SDS011;59355;52.416;13.412;2023-04-15T07:54:43;20.37;;;18.37;;
2848;SDS011;59355;52.416;13.412;2023-04-15T07:57:09;22.97;;;20.67;;
2848;SDS011;59355;52.416;13.412;2023-04-15T07:59:34;22.30;;;20.17;;
2848;SDS011;59355;52.416;13.412;2023-04-15T08:02:00;20.57;;;18.60;;
2848;SDS011;59355;52.416;13.412;2023-04-15T08:04:26;20.10;;;18.20;;
2848;SDS011;59355;52.416;13.412;2023-04-15T08:06:52;22.23;;;19.83;;
2848;SDS011;59355;52.416;13.412;2023-04-15T08:09:17;21.73;;;19.63;;
2848;SDS011;59355;52.416;13.412;2023-04-15T08:11:43;19.17;;;17.33;;
2848;SDS011;59355;52.416;13.412;2023-04-15T08:14:09;20.57;;;18.77;;
2848;SDS011;59355;52.416;13.412;2023-04-15T08:16:34;20.23;;;16.80;;
2848;SDS011;59355;52.416;13.412;2023-04-15T08:19:00;20.80;;;18.83;;
2848;SDS011;59355;52.416;13.412;2023-04-15T08:21:26;20.57;;;18.67;;
2848;SDS011;59355;52.416;13.412;2023-04-15T08:23:52;20.80;;;18.90;;
2848;SDS011;59355;52.416;13.412;2023-04-15T08:26:18;21.40;;;19.30;;
2848;SDS011;59355;52.416;13.412;2023-04-15T08:28:45;21.67;;;19.60;;
2848;SDS011;59355;52.416;13.412;2023-04-15T08:31:11;20.93;;;19.00;;
2848;SDS011;59355;52.416;13.412;2023-04-15T08:33:36;22.33;;;20.23;;
2848;SDS011;59355;52.416;13.412;2023-04-15T08:36:02;20.63;;;18.83;;
2848;SDS011;59355;52.416;13.412;2023-04-15T08:38:28;21.87;;;19.77;;
2848;SDS011;59355;52.416;13.412;2023-04-15T08:40:53;23.00;;;20.80;;
2848;SDS011;59355;52.416;13.412;2023-04-15T08:43:21;21.27;;;19.13;;
2848;SDS011;59355;52.416;13.412;2023-04-15T08:45:52;21.67;;;19.57;;
2848;SDS011;59355;52.416;13.412;2023-04-15T08:48:17;21.43;;;19.40;;
2848;SDS011;59355;52.416;13.412;2023-04-15T08:50:43;22.60;;;20.40;;
2848;SDS011;59355;52.416;13.412;2023-04-15T08:53:10;21.13;;;19.13;;
2848;SDS011;59355;52.416;13.412;2023-04-15T08:55:35;22.50;;;20.40;;
2848;SDS011;59355;52.416;13.412;2023-04-15T08:58:10;21.47;;;19.50;;
2848;SDS011;59355;52.416;13.412;2023-04-15T09:00:36;22.13;;;20.13;;
2848;SDS011;59355;52.416;13.412;2023-04-15T09:03:05;19.90;;;17.93;;
2848;SDS011;59355;52.416;13.412;2023-04-15T09:05:32;20.63;;;18.70;;
2848;SDS011;59355;52.416;13.412;2023-04-15T09:07:57;20.57;;;18.30;;
2848;SDS011;59355;52.416;13.412;2023-04-15T09:10:23;20.87;;;18.77;;
2848;SDS011;59355;52.416;13.412;2023-04-15T09:12:48;21.87;;;19.90;;
2848;SDS011;59355;52.416;13.412;2023-04-15T09:15:13;21.70;;;19.70;;
2848;SDS011;59355;52.416;13.412;2023-04-15T09:17:43;21.27;;;19.33;;
2848;SDS011;59355;52.416;13.412;2023-04-15T09:20:10;21.73;;;19.40;;
2848;SDS011;59355;52.416;13.412;2023-04-15T09:22:39;21.43;;;19.53;;
2848;SDS011;59355;52.416;13.412;2023-04-15T09:25:24;20.10;;;18.20;;
2848;SDS011;59355;52.416;13.412;2023-04-15T09:27:51;23.47;;;21.17;;
2848;SDS011;59355;52.416;13.412;2023-04-15T09:30:18;23.83;;;20.80;;
2848;SDS011;59355;52.416;13.412;2023-04-15T09:32:50;20.60;;;18.77;;
2848;SDS011;59355;52.416;13.412;2023-04-15T09:35:15;21.43;;;19.53;;
2848;SDS011;59355;52.416;13.412;2023-04-15T09:37:41;21.60;;;19.60;;
2848;SDS011;59355;52.416;13.412;2023-04-15T09:40:06;21.73;;;19.77;;
2848;SDS011;59355;52.416;13.412;2023-04-15T09:42:34;21.47;;;19.53;;
2848;SDS011;59355;52.416;13.412;2023-04-15T09:45:12;21.60;;;19.60;;
2848;SDS011;59355;52.416;13.412;2023-04-15T09:47:37;21.63;;;19.60;;
2848;SDS011;59355;52.416;13.412;2023-04-15T09:50:02;22.53;;;19.70;;
2848;SDS011;59355;52.416;13.412;2023-04-15T09:52:28;22.97;;;20.77;;
2848;SDS011;59355;52.416;13.412;2023-04-15T09:54:54;20.63;;;18.80;;
2848;SDS011;59355;52.416;13.412;2023-04-15T09:57:20;21.17;;;19.20;;
2848;SDS011;59355;52.416;13.412;2023-04-15T09:59:47;20.83;;;18.93;;
2848;SDS011;59355;52.416;13.412;2023-04-15T10:02:12;20.60;;;18.80;;
2848;SDS011;59355;52.416;13.412;2023-04-15T10:04:39;21.33;;;19.23;;
2848;SDS011;59355;52.416;13.412;2023-04-15T10:07:05;21.13;;;19.23;;
2848;SDS011;59355;52.416;13.412;2023-04-15T10:09:32;21.20;;;19.20;;
2848;SDS011;59355;52.416;13.412;2023-04-15T10:11:59;20.47;;;18.53;;
2848;SDS011;59355;52.416;13.412;2023-04-15T10:14:25;20.53;;;18.73;;
2848;SDS011;59355;52.416;13.412;2023-04-15T10:16:52;20.10;;;18.10;;
2848;SDS011;59355;52.416;13.412;2023-04-15T10:19:20;20.37;;;18.67;;
2848;SDS011;59355;52.416;13.412;2023-04-15T10:21:49;19.63;;;17.93;;
2848;SDS011;59355;52.416;13.412;2023-04-15T10:24:15;21.67;;;19.67;;
2848;SDS011;59355;52.416;13.412;2023-04-15T10:26:41;19.00;;;17.30;;
2848;SDS011;59355;52.416;13.412;2023-04-15T10:29:06;21.83;;;18.90;;
2848;SDS011;59355;52.416;13.412;2023-04-15T10:31:33;18.93;;;17.10;;
2848;SDS011;59355;52.416;13.412;2023-04-15T10:34:00;19.23;;;17.63;;
2848;SDS011;59355;52.416;13.412;2023-04-15T10:36:29;19.67;;;18.07;;
2848;SDS011;59355;52.416;13.412;2023-04-15T10:38:54;18.23;;;16.70;;
2848;SDS011;59355;52.416;13.412;2023-04-15T10:41:20;18.77;;;17.10;;
2848;SDS011;59355;52.416;13.412;2023-04-15T10:43:50;19.30;;;17.60;;
2848;SDS011;59355;52.416;13.412;2023-04-15T10:46:18;18.50;;;16.90;;
2848;SDS011;59355;52.416;13.412;2023-04-15T10:49:05;20.60;;;18.70;;
2848;SDS011;59355;52.416;13.412;2023-04-15T10:51:37;19.33;;;17.43;;
2848;SDS011;59355;52.416;13.412;2023-04-15T10:54:14;19.30;;;17.40;;
2848;SDS011;59355;52.416;13.412;2023-04-15T10:56:40;20.10;;;18.40;;
2848;SDS011;59355;52.416;13.412;2023-04-15T10:59:07;19.93;;;18.30;;
2848;SDS011;59355;52.416;13.412;2023-04-15T11:01:52;21.17;;;19.20;;
2848;SDS011;59355;52.416;13.412;2023-04-15T11:12:41;20.30;;;18.50;;
2848;SDS011;59355;52.416;13.412;2023-04-15T11:17:59;18.47;;;16.87;;
2848;SDS011;59355;52.416;13.412;2023-04-15T11:20:37;18.10;;;16.33;;
2848;SDS011;59355;52.416;13.412;2023-04-15T11:23:03;19.87;;;18.03;;
2848;SDS011;59355;52.416;13.412;2023-04-15T11:25:30;16.70;;;15.10;;
2848;SDS011;59355;52.416;13.412;2023-04-15T11:27:59;18.77;;;17.17;;
2848;SDS011;59355;52.416;13.412;2023-04-15T11:30:26;17.53;;;16.03;;
2848;SDS011;59355;52.416;13.412;2023-04-15T11:33:06;17.70;;;16.00;;
2848;SDS011;59355;52.416;13.412;2023-04-15T11:35:33;17.30;;;15.80;;
2848;SDS011;59355;52.416;13.412;2023-04-15T11:38:07;19.87;;;17.97;;
2848;SDS011;59355;52.416;13.412;2023-04-15T11:40:33;18.33;;;16.73;;
2848;SDS011;59355;52.416;13.412;2023-04-15T11:43:03;18.17;;;16.50;;
2848;SDS011;59355;52.416;13.412;2023-04-15T11:45:32;18.63;;;17.00;;
2848;SDS011;59355;52.416;13.412;2023-04-15T11:48:07;17.70;;;16.10;;
2848;SDS011;59355;52.416;13.412;2023-04-15T11:50:33;19.03;;;17.23;;
2848;SDS011;59355;52.416;13.412;2023-04-15T11:53:03;18.70;;;16.87;;
2848;SDS011;59355;52.416;13.412;2023-04-15T11:55:29;17.70;;;16.10;;
2848;SDS011;59355;52.416;13.412;2023-04-15T11:58:04;17.87;;;16.30;;
2848;SDS011;59355;52.416;13.412;2023-04-15T12:00:30;17.97;;;16.50;;
2848;SDS011;59355;52.416;13.412;2023-04-15T12:11:41;17.50;;;15.93;;
2848;SDS011;59355;52.416;13.412;2023-04-15T12:14:12;18.50;;;16.90;;
2848;SDS011;59355;52.416;13.412;2023-04-15T12:16:48;16.60;;;15.20;;
2848;SDS011;59355;52.416;13.412;2023-04-15T12:19:15;18.87;;;17.20;;
2848;SDS011;59355;52.416;13.412;2023-04-15T12:21:46;18.17;;;16.53;;
2848;SDS011;59355;52.416;13.412;2023-04-15T12:24:12;18.37;;;16.77;;
2848;SDS011;59355;52.416;13.412;2023-04-15T12:26:42;17.57;;;16.07;;
2848;SDS011;59355;52.416;13.412;2023-04-15T12:29:24;16.77;;;15.20;;
2848;SDS011;59355;52.416;13.412;2023-04-15T12:31:53;17.77;;;16.37;;
2848;SDS011;59355;52.416;13.412;2023-04-15T12:34:29;16.87;;;15.37;;
2848;SDS011;59355;52.416;13.412;2023-04-15T12:36:56;18.10;;;16.30;;
2848;SDS011;59355;52.416;13.412;2023-04-15T12:39:23;19.00;;;17.30;;
2848;SDS011;59355;52.416;13.412;2023-04-15T12:41:49;17.93;;;16.33;;
2848;SDS011;59355;52.416;13.412;2023-04-15T12:44:15;18.17;;;16.57;;
2848;SDS011;59355;52.416;13.412;2023-04-15T12:46:40;16.60;;;15.20;;
2848;SDS011;59355;52.416;13.412;2023-04-15T12:49:06;16.67;;;15.13;;
2848;SDS011;59355;52.416;13.412;2023-04-15T12:51:32;15.90;;;14.30;;
2848;SDS011;59355;52.416;13.412;2023-04-15T12:53:57;16.07;;;14.77;;
2848;SDS011;59355;52.416;13.412;2023-04-15T12:56:22;15.93;;;14.60;;
2848;SDS011;59355;52.416;13.412;2023-04-15T12:58:48;15.60;;;14.30;;
2848;SDS011;59355;52.416;13.412;2023-04-15T13:01:13;14.07;;;12.90;;
2848;SDS011;59355;52.416;13.412;2023-04-15T13:03:38;18.60;;;16.83;;
2848;SDS011;59355;52.416;13.412;2023-04-15T13:06:04;16.40;;;14.93;;
2848;SDS011;59355;52.416;13.412;2023-04-15T13:08:30;16.67;;;15.33;;
2848;SDS011;59355;52.416;13.412;2023-04-15T13:10:55;17.27;;;15.70;;
2848;SDS011;59355;52.416;13.412;2023-04-15T13:13:21;16.03;;;14.77;;
2848;SDS011;59355;52.416;13.412;2023-04-15T13:15:46;16.77;;;15.13;;
2848;SDS011;59355;52.416;13.412;2023-04-15T13:18:11;16.87;;;15.47;;
2848;SDS011;59355;52.416;13.412;2023-04-15T13:20:37;15.47;;;14.17;;
2848;SDS011;59355;52.416;13.412;2023-04-15T13:23:02;14.93;;;13.70;;
2848;SDS011;59355;52.416;13.412;2023-04-15T13:25:28;14.50;;;13.10;;
2848;SDS011;59355;52.416;13.412;2023-04-15T13:27:53;13.73;;;12.53;;
2848;SDS011;59355;52.416;13.412;2023-04-15T13:30:18;15.30;;;14.00;;
2848;SDS011;59355;52.416;13.412;2023-04-15T13:32:44;14.57;;;13.37;;
2848;SDS011;59355;52.416;13.412;2023-04-15T13:35:09;14.90;;;13.50;;
2848;SDS011;59355;52.416;13.412;2023-04-15T13:37:35;15.80;;;14.43;;
2848;SDS011;59355;52.416;13.412;2023-04-15T13:40:00;15.07;;;13.73;;
2848;SDS011;59355;52.416;13.412;2023-04-15T13:42:25;15.10;;;13.80;;
2848;SDS011;59355;52.416;13.412;2023-04-15T13:44:51;14.43;;;13.13;;
2848;SDS011;59355;52.416;13.412;2023-04-15T13:47:17;15.10;;;13.73;;
2848;SDS011;59355;52.416;13.412;2023-04-15T13:49:43;15.27;;;13.87;;
2848;SDS011;59355;52.416;13.412;2023-04-15T13:52:08;17.00;;;15.50;;
2848;SDS011;59355;52.416;13.412;2023-04-15T13:54:34;16.17;;;14.53;;
2848;SDS011;59355;52.416;13.412;2023-04-15T13:56:59;15.43;;;12.17;;
2848;SDS011;59355;52.416;13.412;2023-04-15T13:59:25;14.70;;;13.40;;
2848;SDS011;59355;52.416;13.412;2023-04-15T14:01:51;14.20;;;13.10;;
2848;SDS011;59355;52.416;13.412;2023-04-15T14:04:16;16.33;;;14.90;;
2848;SDS011;59355;52.416;13.412;2023-04-15T14:06:42;14.13;;;12.80;;
2848;SDS011;59355;52.416;13.412;2023-04-15T14:09:07;14.20;;;12.90;;
2848;SDS011;59355;52.416;13.412;2023-04-15T14:11:32;12.50;;;11.50;;
2848;SDS011;59355;52.416;13.412;2023-04-15T14:14:00;13.10;;;11.90;;
2848;SDS011;59355;52.416;13.412;2023-04-15T14:16:25;15.60;;;12.37;;
2848;SDS011;59355;52.416;13.412;2023-04-15T14:18:51;13.80;;;12.60;;
2848;SDS011;59355;52.416;13.412;2023-04-15T14:21:16;13.50;;;12.30;;
2848;SDS011;59355;52.416;13.412;2023-04-15T14:23:42;15.03;;;13.43;;
2848;SDS011;59355;52.416;13.412;2023-04-15T14:26:07;13.63;;;12.23;;
2848;SDS011;59355;52.416;13.412;2023-04-15T14:28:32;14.70;;;13.30;;
2848;SDS011;59355;52.416;13.412;2023-04-15T14:30:58;13.77;;;12.57;;
2848;SDS011;59355;52.416;13.412;2023-04-15T14:33:23;14.47;;;13.00;;
2848;SDS011;59355;52.416;13.412;2023-04-15T14:35:49;13.57;;;12.47;;
2848;SDS011;59355;52.416;13.412;2023-04-15T14:38:15;16.70;;;15.07;;